XLS weather

Saint Louis Airport
Saint Louis, Saint-Louis Region, Senegal

Public forecast

Using degrees Celsius for public forecast. Weather courtesy of forecast.io.

METAR (pilot weather report)

Retrieved 2019/09/23 12:00 UTC (28 minutes ago):

GOSS 231200Z 23008KT 9999 SCT015 SCT130 33/26 Q1014

TAF (pilot weather forecast)

Retrieved 2019/09/23 12:51 UTC (0 seconds ago):

TAF GOSS 231130Z 2312/2412 26008KT 9999 SCT010 PROB30 TEMPO 2316/2322 4500 TSRA BKN010 FEW020CB